createdAt,value
2023-05-10T00:01:53.003Z,3.38
2023-05-10T00:04:37.904Z,3.83
2023-05-10T00:07:22.671Z,4.17
2023-05-10T00:10:08.114Z,3.90
2023-05-10T00:12:52.874Z,4.13
2023-05-10T00:15:37.782Z,4.43
2023-05-10T00:18:22.860Z,4.20
2023-05-10T00:21:07.693Z,4.33
2023-05-10T00:23:52.545Z,4.38
2023-05-10T00:26:37.304Z,4.65
2023-05-10T00:29:22.194Z,4.38
2023-05-10T00:32:07.478Z,4.30
2023-05-10T00:34:52.421Z,4.20
2023-05-10T00:37:37.065Z,4.47
2023-05-10T00:40:22.206Z,4.68
2023-05-10T00:43:07.197Z,4.25
2023-05-10T00:45:53.026Z,4.03
2023-05-10T00:48:38.357Z,3.67
2023-05-10T00:51:23.180Z,3.83
2023-05-10T00:54:08.307Z,3.50
2023-05-10T00:56:53.474Z,3.33
2023-05-10T00:59:38.458Z,3.70
2023-05-10T01:02:23.662Z,3.20
2023-05-10T01:05:09.276Z,3.53
2023-05-10T01:07:54.322Z,3.30
2023-05-10T01:10:39.428Z,2.95
2023-05-10T01:13:36.973Z,3.17
2023-05-10T01:16:22.189Z,3.03
2023-05-10T01:19:18.167Z,3.17
2023-05-10T01:22:43.894Z,2.83
2023-05-10T01:25:50.210Z,2.58
2023-05-10T01:28:37.926Z,2.50
2023-05-10T01:31:47.761Z,2.83
2023-05-10T01:34:40.341Z,2.75
2023-05-10T01:37:51.331Z,1.90
2023-05-10T01:41:10.175Z,2.45
2023-05-10T01:44:13.869Z,2.38
2023-05-10T01:47:05.335Z,2.20
2023-05-10T01:49:53.275Z,1.90
2023-05-10T01:52:41.774Z,2.35
2023-05-10T01:55:31.617Z,2.10
2023-05-10T01:58:21.847Z,1.88
2023-05-10T02:01:09.195Z,2.07
2023-05-10T02:03:56.485Z,2.13
2023-05-10T02:06:43.391Z,2.47
2023-05-10T02:09:30.797Z,2.40
2023-05-10T02:12:16.944Z,2.65
2023-05-10T02:15:06.557Z,2.97
2023-05-10T02:17:53.485Z,2.97
2023-05-10T02:20:39.386Z,3.17
2023-05-10T02:23:25.198Z,3.20
2023-05-10T02:26:11.495Z,3.28
2023-05-10T02:28:57.962Z,3.57
2023-05-10T02:31:44.502Z,3.92
2023-05-10T02:34:30.802Z,3.65
2023-05-10T02:37:17.542Z,3.55
2023-05-10T02:40:04.272Z,3.67
2023-05-10T02:42:53.072Z,3.93
2023-05-10T02:45:39.820Z,3.35
2023-05-10T02:48:25.361Z,3.78
2023-05-10T02:51:14.781Z,3.60
2023-05-10T02:54:07.903Z,4.00
2023-05-10T02:56:59.375Z,3.27
2023-05-10T02:59:45.881Z,3.78
2023-05-10T03:02:31.678Z,3.85
2023-05-10T03:05:16.630Z,3.95
2023-05-10T03:08:04.770Z,4.10
2023-05-10T03:11:05.659Z,4.13
2023-05-10T03:14:22.214Z,4.07
2023-05-10T03:17:20.066Z,4.55
2023-05-10T03:20:10.661Z,4.10
2023-05-10T03:23:11.441Z,4.25
2023-05-10T03:25:56.582Z,4.23
2023-05-10T03:28:42.390Z,3.97
2023-05-10T03:31:28.177Z,4.40
2023-05-10T03:34:13.165Z,4.57
2023-05-10T03:36:58.234Z,4.22
2023-05-10T03:39:43.647Z,4.40
2023-05-10T03:42:28.498Z,4.53
2023-05-10T03:45:13.823Z,4.68
2023-05-10T03:47:59.088Z,4.78
2023-05-10T03:50:44.746Z,4.57
2023-05-10T03:53:29.834Z,4.67
2023-05-10T03:56:15.009Z,5.20
2023-05-10T03:59:00.325Z,5.40
2023-05-10T04:01:45.069Z,5.45
2023-05-10T04:04:30.061Z,6.00
2023-05-10T04:07:15.280Z,5.67
2023-05-10T04:10:00.006Z,6.03
2023-05-10T04:12:44.928Z,6.43
2023-05-10T04:15:30.188Z,7.03
2023-05-10T04:18:15.256Z,6.38
2023-05-10T04:21:00.270Z,6.40
2023-05-10T04:23:45.112Z,6.80
2023-05-10T04:26:30.281Z,6.78
2023-05-10T04:29:15.208Z,7.28
2023-05-10T04:32:00.211Z,6.75
2023-05-10T04:34:45.128Z,7.00
2023-05-10T04:37:30.183Z,7.05
2023-05-10T04:40:15.421Z,7.38
2023-05-10T04:43:00.926Z,6.47
2023-05-10T04:45:45.672Z,7.57
2023-05-10T04:48:30.956Z,7.00
2023-05-10T04:51:16.057Z,7.43
2023-05-10T04:54:06.043Z,7.75
2023-05-10T04:56:51.828Z,7.38
2023-05-10T04:59:38.383Z,7.68
2023-05-10T05:02:24.501Z,6.80
2023-05-10T05:05:09.743Z,6.93
2023-05-10T05:07:54.573Z,7.95
2023-05-10T05:10:39.656Z,6.43
2023-05-10T05:13:25.196Z,7.43
2023-05-10T05:16:11.674Z,6.53
2023-05-10T05:18:57.266Z,7.13
2023-05-10T05:21:42.278Z,6.65
2023-05-10T05:24:27.461Z,6.95
2023-05-10T05:27:12.574Z,7.70
2023-05-10T05:29:57.615Z,7.50
2023-05-10T05:32:42.541Z,7.22
2023-05-10T05:35:27.568Z,7.53
2023-05-10T05:38:12.537Z,6.72
2023-05-10T05:40:57.885Z,6.70
2023-05-10T05:43:42.731Z,6.77
2023-05-10T05:46:27.925Z,7.05
2023-05-10T05:49:13.213Z,7.70
2023-05-10T05:52:00.845Z,6.85
2023-05-10T05:54:45.644Z,7.50
2023-05-10T05:57:30.849Z,7.43
2023-05-10T06:00:16.353Z,7.55
2023-05-10T06:03:01.179Z,8.32
2023-05-10T06:05:46.085Z,8.43
2023-05-10T06:08:31.056Z,7.70
2023-05-10T06:11:16.132Z,6.70
2023-05-10T06:14:02.569Z,7.10
2023-05-10T06:16:47.715Z,7.15
2023-05-10T06:19:32.840Z,6.75
2023-05-10T06:22:18.033Z,7.18
2023-05-10T06:25:03.474Z,6.60
2023-05-10T06:27:52.705Z,6.82
2023-05-10T06:30:38.942Z,7.03
2023-05-10T06:33:23.926Z,7.05
2023-05-10T06:36:08.911Z,6.40
2023-05-10T06:38:53.844Z,6.07
2023-05-10T06:41:38.659Z,6.18
2023-05-10T06:44:23.602Z,6.07
2023-05-10T06:47:08.677Z,5.43
2023-05-10T06:49:53.838Z,5.63
2023-05-10T06:52:39.011Z,5.60
2023-05-10T06:55:24.505Z,5.40
2023-05-10T06:58:09.535Z,5.55
2023-05-10T07:00:54.686Z,4.63
2023-05-10T07:03:39.765Z,4.35
2023-05-10T07:06:33.462Z,4.43
2023-05-10T07:09:18.891Z,4.57
2023-05-10T07:12:04.471Z,4.40
2023-05-10T07:14:49.620Z,4.40
2023-05-10T07:17:34.541Z,4.15
2023-05-10T07:20:19.937Z,3.53
2023-05-10T07:23:04.747Z,3.72
2023-05-10T07:25:52.356Z,3.90
2023-05-10T07:28:38.423Z,3.75
2023-05-10T07:31:23.455Z,4.07
2023-05-10T07:34:08.588Z,3.77
2023-05-10T07:36:53.864Z,3.47
2023-05-10T07:39:39.005Z,4.03
2023-05-10T07:42:23.870Z,4.18
2023-05-10T07:45:09.572Z,4.05
2023-05-10T07:47:54.565Z,4.20
2023-05-10T07:50:39.191Z,3.60
2023-05-10T07:53:24.406Z,4.18
2023-05-10T07:56:26.194Z,3.95
2023-05-10T07:59:12.732Z,3.80
2023-05-10T08:01:57.908Z,3.70
2023-05-10T08:04:43.133Z,3.80
2023-05-10T08:07:28.074Z,3.67
2023-05-10T08:10:12.979Z,3.05
2023-05-10T08:12:59.268Z,2.70
2023-05-10T08:15:44.500Z,2.50
2023-05-10T08:18:29.367Z,2.90
2023-05-10T08:21:15.522Z,3.42
2023-05-10T08:24:00.404Z,2.88
2023-05-10T08:26:45.235Z,1.38
2023-05-10T08:29:32.875Z,1.03
2023-05-10T08:32:23.831Z,1.00
2023-05-10T08:35:08.548Z,1.08
2023-05-10T08:37:53.733Z,1.10
2023-05-10T08:40:38.763Z,0.60
2023-05-10T08:43:29.046Z,0.70
2023-05-10T08:46:20.672Z,0.77
2023-05-10T08:49:08.520Z,0.90
2023-05-10T08:51:56.751Z,1.05
2023-05-10T08:54:42.402Z,0.90
2023-05-10T08:57:27.555Z,0.53
2023-05-10T09:00:14.293Z,1.17
2023-05-10T09:03:00.781Z,1.20
2023-05-10T09:05:46.214Z,1.10
2023-05-10T09:08:31.958Z,1.00
2023-05-10T09:11:17.966Z,0.83
2023-05-10T09:14:03.595Z,0.93
2023-05-10T09:16:48.811Z,0.90
2023-05-10T09:19:33.870Z,0.93
2023-05-10T09:22:18.915Z,1.15
2023-05-10T09:25:07.645Z,1.60
2023-05-10T09:27:53.384Z,1.90
2023-05-10T09:30:38.455Z,2.60
2023-05-10T09:33:23.236Z,3.03
2023-05-10T09:36:09.151Z,3.78
2023-05-10T09:38:54.376Z,3.50
2023-05-10T09:41:43.137Z,4.22
2023-05-10T09:44:28.223Z,4.35
2023-05-10T09:47:18.669Z,4.90
2023-05-10T09:50:05.127Z,6.05
2023-05-10T09:53:02.390Z,5.07
2023-05-10T09:55:47.578Z,6.20
2023-05-10T09:58:37.262Z,5.75
2023-05-10T10:01:22.397Z,6.15
2023-05-10T10:04:10.218Z,6.18
2023-05-10T10:07:05.256Z,6.10
2023-05-10T10:09:50.674Z,5.75
2023-05-10T10:12:36.600Z,5.65
2023-05-10T10:15:23.265Z,5.20
2023-05-10T10:18:08.832Z,5.20
2023-05-10T10:20:55.309Z,4.67
2023-05-10T10:23:40.154Z,4.47
2023-05-10T10:26:25.954Z,4.57
2023-05-10T10:29:21.287Z,6.57
2023-05-10T10:32:55.321Z,4.82
2023-05-10T10:35:40.985Z,5.10
2023-05-10T10:38:26.329Z,4.07
2023-05-10T10:41:27.685Z,3.70
2023-05-10T10:44:31.662Z,3.47
2023-05-10T10:47:23.965Z,2.90
2023-05-10T10:50:09.216Z,2.10
2023-05-10T10:52:54.130Z,1.80
2023-05-10T10:55:49.359Z,1.75
2023-05-10T10:58:34.892Z,1.67
2023-05-10T11:01:20.413Z,1.30
2023-05-10T11:04:05.459Z,1.40
2023-05-10T11:06:50.567Z,1.50
2023-05-10T11:09:41.042Z,1.45
2023-05-10T11:12:26.095Z,1.30
2023-05-10T11:15:11.243Z,0.93
2023-05-10T11:17:56.734Z,0.83
2023-05-10T11:20:42.074Z,1.02
2023-05-10T11:23:57.125Z,1.20
2023-05-10T11:26:43.076Z,1.40
2023-05-10T11:29:27.906Z,1.35
2023-05-10T11:32:13.979Z,1.10
2023-05-10T11:34:58.911Z,1.27
2023-05-10T11:37:44.741Z,1.50
2023-05-10T11:40:29.789Z,1.60
2023-05-10T11:43:14.556Z,1.60
2023-05-10T11:45:59.603Z,1.43
2023-05-10T11:48:44.805Z,1.40
2023-05-10T11:51:29.497Z,1.40
2023-05-10T11:54:14.765Z,1.40
2023-05-10T11:56:59.437Z,1.90
2023-05-10T11:59:44.387Z,1.33
2023-05-10T12:02:30.208Z,1.70
2023-05-10T12:05:16.006Z,1.40
2023-05-10T12:08:14.560Z,1.60
2023-05-10T12:11:08.252Z,1.70
2023-05-10T12:13:54.015Z,1.30
2023-05-10T12:16:38.988Z,1.45
2023-05-10T12:19:24.012Z,1.58
2023-05-10T12:22:09.206Z,1.20
2023-05-10T12:24:53.931Z,1.40
2023-05-10T12:27:38.834Z,1.20
2023-05-10T12:30:28.883Z,1.40
2023-05-10T12:33:15.999Z,1.20
2023-05-10T12:36:00.868Z,0.90
2023-05-10T12:38:48.932Z,1.00
2023-05-10T12:41:34.114Z,1.17
2023-05-10T12:44:19.394Z,1.20
2023-05-10T12:47:04.588Z,1.10
2023-05-10T12:49:49.607Z,1.00
2023-05-10T12:52:34.584Z,1.20
2023-05-10T12:55:19.609Z,0.97
2023-05-10T12:58:04.517Z,1.00
2023-05-10T13:00:49.714Z,1.13
2023-05-10T13:03:34.817Z,1.00
2023-05-10T13:06:19.970Z,1.20
2023-05-10T13:09:05.397Z,0.97
2023-05-10T13:11:50.613Z,0.93
2023-05-10T13:14:35.379Z,0.80
2023-05-10T13:17:20.518Z,0.90
2023-05-10T13:20:05.740Z,1.10
2023-05-10T13:22:52.197Z,1.00
2023-05-10T13:25:37.197Z,1.08
2023-05-10T13:28:22.114Z,0.77
2023-05-10T13:31:08.316Z,1.00
2023-05-10T13:33:53.416Z,0.90
2023-05-10T13:36:39.142Z,1.00
2023-05-10T13:39:24.250Z,0.80
2023-05-10T13:42:09.625Z,0.70
2023-05-10T13:44:54.549Z,0.88
2023-05-10T13:47:39.334Z,0.80
2023-05-10T13:50:24.150Z,1.00
2023-05-10T13:53:09.317Z,0.80
2023-05-10T13:55:54.150Z,0.90
2023-05-10T13:58:38.946Z,0.90
2023-05-10T14:01:24.141Z,0.90
2023-05-10T14:04:11.186Z,0.90
2023-05-10T14:06:56.688Z,1.10
2023-05-10T14:09:41.891Z,1.10
2023-05-10T14:12:26.704Z,1.00
2023-05-10T14:15:12.516Z,1.00
2023-05-10T14:17:57.913Z,1.07
2023-05-10T14:20:42.727Z,1.42
2023-05-10T14:23:29.485Z,1.00
2023-05-10T14:26:14.172Z,1.08
2023-05-10T14:29:00.199Z,1.00
2023-05-10T14:31:45.129Z,1.27
2023-05-10T14:34:30.630Z,1.30
2023-05-10T14:37:16.402Z,1.30
2023-05-10T14:40:01.321Z,1.30
2023-05-10T14:42:46.090Z,1.50
2023-05-10T14:45:31.052Z,1.37
2023-05-10T14:48:18.232Z,1.67
2023-05-10T14:51:04.369Z,1.70
2023-05-10T14:53:50.170Z,1.40
2023-05-10T14:56:35.141Z,1.30
2023-05-10T14:59:21.516Z,2.33
2023-05-10T15:02:06.761Z,1.40
2023-05-10T15:04:52.219Z,1.30
2023-05-10T15:07:37.562Z,1.45
2023-05-10T15:10:22.650Z,1.45
2023-05-10T15:13:07.534Z,1.43
2023-05-10T15:15:52.843Z,1.40
2023-05-10T15:18:37.927Z,1.30
2023-05-10T15:21:22.668Z,1.20
2023-05-10T15:24:07.507Z,1.02
2023-05-10T15:26:52.284Z,0.90
2023-05-10T15:29:37.511Z,1.05
2023-05-10T15:32:22.715Z,1.30
2023-05-10T15:35:11.329Z,1.20
2023-05-10T15:37:56.429Z,1.20
2023-05-10T15:40:41.355Z,1.20
2023-05-10T15:43:26.148Z,1.17
2023-05-10T15:46:11.091Z,1.60
2023-05-10T15:48:59.138Z,1.27
2023-05-10T15:51:44.407Z,1.50
2023-05-10T15:54:29.273Z,2.23
2023-05-10T15:57:14.129Z,1.20
2023-05-10T15:59:59.202Z,1.50
2023-05-10T16:02:44.110Z,1.50
2023-05-10T16:05:32.472Z,1.33
2023-05-10T16:08:17.457Z,1.43
2023-05-10T16:11:03.030Z,1.60
2023-05-10T16:13:47.851Z,1.45
2023-05-10T16:16:33.105Z,1.40
2023-05-10T16:19:18.257Z,1.38
2023-05-10T16:22:03.722Z,1.40
2023-05-10T16:24:48.734Z,1.40
2023-05-10T16:27:33.467Z,1.42
2023-05-10T16:30:18.650Z,1.58
2023-05-10T16:33:03.810Z,1.70
2023-05-10T16:35:48.952Z,1.07
2023-05-10T16:38:34.132Z,1.65
2023-05-10T16:41:19.377Z,1.15
2023-05-10T16:44:04.411Z,1.13
2023-05-10T16:46:49.268Z,1.10
2023-05-10T16:49:36.146Z,1.10
2023-05-10T16:52:21.179Z,1.17
2023-05-10T16:55:06.497Z,1.20
2023-05-10T16:57:51.750Z,1.42
2023-05-10T17:00:36.816Z,1.40
2023-05-10T17:03:22.174Z,1.50
2023-05-10T17:06:07.354Z,1.33
2023-05-10T17:08:52.347Z,1.48
2023-05-10T17:11:37.465Z,1.30
2023-05-10T17:14:22.950Z,1.73
2023-05-10T17:17:08.021Z,1.27
2023-05-10T17:19:53.141Z,1.52
2023-05-10T17:22:38.147Z,1.27
2023-05-10T17:25:22.986Z,1.20
2023-05-10T17:28:08.074Z,1.10
2023-05-10T17:30:57.716Z,1.10
2023-05-10T17:33:42.519Z,0.85
2023-05-10T17:36:28.391Z,0.98
2023-05-10T17:39:13.117Z,1.10
2023-05-10T17:41:58.061Z,0.90
2023-05-10T17:44:43.806Z,1.00
2023-05-10T17:47:29.016Z,0.90
2023-05-10T17:50:14.307Z,1.10
2023-05-10T17:52:59.280Z,0.95
2023-05-10T17:55:44.223Z,1.10
2023-05-10T17:58:29.474Z,0.80
2023-05-10T18:01:14.484Z,1.13
2023-05-10T18:03:59.561Z,1.33
2023-05-10T18:06:44.696Z,1.23
2023-05-10T18:09:29.636Z,0.98
2023-05-10T18:12:14.577Z,0.90
2023-05-10T18:15:00.826Z,1.42
2023-05-10T18:17:45.676Z,1.38
2023-05-10T18:20:31.707Z,1.08
2023-05-10T18:23:16.877Z,1.10
2023-05-10T18:26:02.032Z,1.00
2023-05-10T18:28:47.450Z,1.10
2023-05-10T18:31:32.391Z,0.90
2023-05-10T18:34:18.801Z,0.90
2023-05-10T18:37:07.339Z,0.70
2023-05-10T18:39:52.765Z,1.00
2023-05-10T18:42:38.005Z,0.80
2023-05-10T18:45:23.157Z,1.20
2023-05-10T18:48:08.311Z,1.00
2023-05-10T18:50:53.412Z,0.95
2023-05-10T18:53:38.194Z,1.10
2023-05-10T18:56:23.653Z,0.90
2023-05-10T18:59:08.483Z,0.80
2023-05-10T19:01:54.950Z,1.00
2023-05-10T19:04:41.470Z,1.00
2023-05-10T19:07:26.409Z,1.47
2023-05-10T19:10:12.798Z,1.00
2023-05-10T19:12:58.004Z,1.10
2023-05-10T19:15:42.984Z,1.10
2023-05-10T19:18:28.085Z,1.27
2023-05-10T19:21:13.115Z,1.20
2023-05-10T19:23:58.517Z,1.10
2023-05-10T19:26:43.533Z,1.52
2023-05-10T19:29:28.549Z,1.40
2023-05-10T19:32:13.406Z,1.20
2023-05-10T19:34:58.617Z,0.90
2023-05-10T19:37:47.201Z,1.00
2023-05-10T19:40:32.152Z,1.20
2023-05-10T19:43:17.652Z,1.45
2023-05-10T19:46:03.290Z,1.45
2023-05-10T19:48:48.136Z,1.23
2023-05-10T19:51:33.372Z,1.65
2023-05-10T19:54:18.559Z,1.83
2023-05-10T19:57:04.265Z,1.80
2023-05-10T19:59:49.296Z,1.75
2023-05-10T20:02:34.438Z,1.87
2023-05-10T20:05:19.491Z,1.80
2023-05-10T20:08:04.699Z,1.90
2023-05-10T20:10:49.824Z,2.22
2023-05-10T20:13:34.714Z,2.10
2023-05-10T20:16:19.538Z,2.30
2023-05-10T20:19:04.805Z,2.10
2023-05-10T20:21:49.808Z,2.53
2023-05-10T20:24:36.001Z,2.20
2023-05-10T20:27:20.973Z,1.83
2023-05-10T20:30:06.932Z,1.90
2023-05-10T20:32:52.048Z,2.13
2023-05-10T20:35:37.069Z,2.20
2023-05-10T20:38:21.882Z,1.83
2023-05-10T20:41:07.370Z,2.20
2023-05-10T20:43:52.363Z,2.50
2023-05-10T20:46:37.696Z,2.20
2023-05-10T20:49:22.902Z,2.00
2023-05-10T20:52:07.747Z,2.10
2023-05-10T20:54:52.740Z,1.88
2023-05-10T20:57:37.842Z,2.03
2023-05-10T21:00:22.623Z,2.05
2023-05-10T21:03:07.729Z,2.10
2023-05-10T21:05:52.553Z,1.73
2023-05-10T21:08:37.721Z,2.17
2023-05-10T21:11:22.616Z,1.80
2023-05-10T21:14:08.505Z,1.98
2023-05-10T21:16:54.366Z,1.88
2023-05-10T21:19:39.161Z,1.67
2023-05-10T21:22:24.216Z,1.33
2023-05-10T21:25:09.485Z,1.50
2023-05-10T21:27:54.629Z,1.45
2023-05-10T21:30:39.729Z,1.50
2023-05-10T21:33:24.789Z,1.35
2023-05-10T21:36:09.600Z,1.08
2023-05-10T21:38:54.656Z,1.50
2023-05-10T21:41:39.980Z,1.60
2023-05-10T21:44:24.801Z,1.50
2023-05-10T21:47:09.853Z,1.73
2023-05-10T21:49:54.969Z,1.48
2023-05-10T21:52:39.934Z,1.50
2023-05-10T21:55:25.029Z,1.33
2023-05-10T21:58:10.868Z,1.60
2023-05-10T22:00:55.959Z,1.33
2023-05-10T22:03:40.895Z,1.10
2023-05-10T22:06:25.921Z,0.90
2023-05-10T22:09:11.209Z,0.85
2023-05-10T22:11:56.327Z,1.00
2023-05-10T22:14:41.290Z,1.10
2023-05-10T22:17:26.460Z,1.20
2023-05-10T22:20:11.482Z,1.37
2023-05-10T22:22:56.647Z,1.20
2023-05-10T22:25:41.862Z,1.40
2023-05-10T22:28:26.818Z,1.40
2023-05-10T22:31:12.451Z,1.63
2023-05-10T22:33:57.712Z,1.60
2023-05-10T22:36:42.700Z,1.65
2023-05-10T22:39:27.856Z,1.40
2023-05-10T22:42:13.050Z,1.30
2023-05-10T22:44:58.719Z,1.65
2023-05-10T22:47:43.612Z,1.23
2023-05-10T22:50:30.022Z,1.30
2023-05-10T22:53:15.093Z,0.60
2023-05-10T22:56:00.043Z,0.50
2023-05-10T22:58:45.228Z,0.60
2023-05-10T23:01:30.085Z,0.60
2023-05-10T23:04:15.682Z,0.52
2023-05-10T23:07:00.676Z,0.40
2023-05-10T23:09:46.010Z,0.50
2023-05-10T23:12:31.353Z,0.60
2023-05-10T23:15:16.134Z,0.20
2023-05-10T23:18:01.469Z,0.40
2023-05-10T23:20:46.432Z,0.40
2023-05-10T23:23:33.873Z,0.20
2023-05-10T23:26:18.966Z,0.38
2023-05-10T23:29:03.704Z,0.30
2023-05-10T23:31:49.028Z,0.25
2023-05-10T23:34:34.147Z,0.40
2023-05-10T23:37:19.072Z,0.40
2023-05-10T23:40:04.417Z,0.40
2023-05-10T23:42:49.323Z,0.23
2023-05-10T23:45:34.625Z,0.30
2023-05-10T23:48:19.888Z,0.30
2023-05-10T23:51:04.894Z,0.30
2023-05-10T23:53:50.186Z,0.20
2023-05-10T23:56:35.042Z,0.30
2023-05-10T23:59:19.796Z,0.28
